sensor_id;sensor_type;location;lat;lon;timestamp;P1;durP1;ratioP1;P2;durP2;ratioP2
4698;SDS011;33708;49.466;11.176;2023-04-23T00:01:50;15.13;;;2.90;;
4698;SDS011;33708;49.466;11.176;2023-04-23T00:04:19;11.03;;;3.30;;
4698;SDS011;33708;49.466;11.176;2023-04-23T00:06:46;16.70;;;3.27;;
4698;SDS011;33708;49.466;11.176;2023-04-23T00:09:12;10.73;;;2.97;;
4698;SDS011;33708;49.466;11.176;2023-04-23T00:11:40;15.03;;;3.10;;
4698;SDS011;33708;49.466;11.176;2023-04-23T00:14:06;9.10;;;2.87;;
4698;SDS011;33708;49.466;11.176;2023-04-23T00:16:32;12.80;;;3.17;;
4698;SDS011;33708;49.466;11.176;2023-04-23T00:18:58;13.30;;;3.77;;
4698;SDS011;33708;49.466;11.176;2023-04-23T00:21:23;12.57;;;3.13;;
4698;SDS011;33708;49.466;11.176;2023-04-23T00:23:49;15.10;;;3.77;;
4698;SDS011;33708;49.466;11.176;2023-04-23T00:26:15;10.47;;;3.30;;
4698;SDS011;33708;49.466;11.176;2023-04-23T00:28:42;11.60;;;3.63;;
4698;SDS011;33708;49.466;11.176;2023-04-23T00:31:07;10.93;;;3.33;;
4698;SDS011;33708;49.466;11.176;2023-04-23T00:33:33;10.90;;;3.10;;
4698;SDS011;33708;49.466;11.176;2023-04-23T00:35:59;12.60;;;3.50;;
4698;SDS011;33708;49.466;11.176;2023-04-23T00:38:24;10.57;;;2.77;;
4698;SDS011;33708;49.466;11.176;2023-04-23T00:40:50;12.30;;;3.10;;
4698;SDS011;33708;49.466;11.176;2023-04-23T00:43:16;18.30;;;3.70;;
4698;SDS011;33708;49.466;11.176;2023-04-23T00:45:43;11.00;;;3.13;;
4698;SDS011;33708;49.466;11.176;2023-04-23T00:48:09;10.60;;;3.13;;
4698;SDS011;33708;49.466;11.176;2023-04-23T00:50:36;11.70;;;3.47;;
4698;SDS011;33708;49.466;11.176;2023-04-23T00:53:01;10.83;;;3.40;;
4698;SDS011;33708;49.466;11.176;2023-04-23T00:55:27;10.83;;;3.40;;
4698;SDS011;33708;49.466;11.176;2023-04-23T00:57:57;13.63;;;3.53;;
4698;SDS011;33708;49.466;11.176;2023-04-23T01:00:22;10.00;;;3.40;;
4698;SDS011;33708;49.466;11.176;2023-04-23T01:02:48;16.73;;;4.00;;
4698;SDS011;33708;49.466;11.176;2023-04-23T01:05:14;10.00;;;3.53;;
4698;SDS011;33708;49.466;11.176;2023-04-23T01:07:42;11.23;;;3.47;;
4698;SDS011;33708;49.466;11.176;2023-04-23T01:10:09;12.30;;;3.57;;
4698;SDS011;33708;49.466;11.176;2023-04-23T01:12:36;13.90;;;4.37;;
4698;SDS011;33708;49.466;11.176;2023-04-23T01:15:02;12.47;;;3.80;;
4698;SDS011;33708;49.466;11.176;2023-04-23T01:17:29;11.43;;;3.40;;
4698;SDS011;33708;49.466;11.176;2023-04-23T01:19:56;9.80;;;3.63;;
4698;SDS011;33708;49.466;11.176;2023-04-23T01:22:22;10.43;;;3.50;;
4698;SDS011;33708;49.466;11.176;2023-04-23T01:24:48;10.60;;;3.57;;
4698;SDS011;33708;49.466;11.176;2023-04-23T01:27:14;12.67;;;3.73;;
4698;SDS011;33708;49.466;11.176;2023-04-23T01:29:40;16.00;;;4.03;;
4698;SDS011;33708;49.466;11.176;2023-04-23T01:32:07;17.37;;;3.80;;
4698;SDS011;33708;49.466;11.176;2023-04-23T01:34:33;16.60;;;4.17;;
4698;SDS011;33708;49.466;11.176;2023-04-23T01:36:59;11.73;;;4.40;;
4698;SDS011;33708;49.466;11.176;2023-04-23T01:39:27;10.80;;;3.80;;
4698;SDS011;33708;49.466;11.176;2023-04-23T01:41:53;13.30;;;4.30;;
4698;SDS011;33708;49.466;11.176;2023-04-23T01:44:18;11.57;;;4.00;;
4698;SDS011;33708;49.466;11.176;2023-04-23T01:46:44;10.17;;;3.40;;
4698;SDS011;33708;49.466;11.176;2023-04-23T01:49:10;11.40;;;4.00;;
4698;SDS011;33708;49.466;11.176;2023-04-23T01:51:37;12.23;;;3.50;;
4698;SDS011;33708;49.466;11.176;2023-04-23T01:54:02;12.40;;;3.90;;
4698;SDS011;33708;49.466;11.176;2023-04-23T01:56:28;11.40;;;3.93;;
4698;SDS011;33708;49.466;11.176;2023-04-23T01:58:54;17.10;;;4.00;;
4698;SDS011;33708;49.466;11.176;2023-04-23T02:01:20;12.13;;;3.80;;
4698;SDS011;33708;49.466;11.176;2023-04-23T02:03:48;10.00;;;3.37;;
4698;SDS011;33708;49.466;11.176;2023-04-23T02:06:14;10.30;;;3.17;;
4698;SDS011;33708;49.466;11.176;2023-04-23T02:08:41;14.30;;;3.30;;
4698;SDS011;33708;49.466;11.176;2023-04-23T02:11:07;11.60;;;3.57;;
4698;SDS011;33708;49.466;11.176;2023-04-23T02:13:33;13.13;;;3.37;;
4698;SDS011;33708;49.466;11.176;2023-04-23T02:15:59;12.83;;;3.17;;
4698;SDS011;33708;49.466;11.176;2023-04-23T02:18:24;10.60;;;3.63;;
4698;SDS011;33708;49.466;11.176;2023-04-23T02:20:50;12.60;;;3.07;;
4698;SDS011;33708;49.466;11.176;2023-04-23T02:23:15;9.73;;;3.00;;
4698;SDS011;33708;49.466;11.176;2023-04-23T02:25:41;9.30;;;3.10;;
4698;SDS011;33708;49.466;11.176;2023-04-23T02:28:07;11.37;;;3.67;;
4698;SDS011;33708;49.466;11.176;2023-04-23T02:30:35;13.13;;;3.40;;
4698;SDS011;33708;49.466;11.176;2023-04-23T02:33:01;15.10;;;3.80;;
4698;SDS011;33708;49.466;11.176;2023-04-23T02:35:28;13.77;;;4.00;;
4698;SDS011;33708;49.466;11.176;2023-04-23T02:37:54;10.70;;;3.53;;
4698;SDS011;33708;49.466;11.176;2023-04-23T02:40:20;19.70;;;4.30;;
4698;SDS011;33708;49.466;11.176;2023-04-23T02:42:46;16.10;;;4.00;;
4698;SDS011;33708;49.466;11.176;2023-04-23T02:45:12;9.13;;;3.07;;
4698;SDS011;33708;49.466;11.176;2023-04-23T02:47:38;10.40;;;3.50;;
4698;SDS011;33708;49.466;11.176;2023-04-23T02:50:04;13.40;;;3.83;;
4698;SDS011;33708;49.466;11.176;2023-04-23T02:52:30;9.97;;;3.17;;
4698;SDS011;33708;49.466;11.176;2023-04-23T02:54:57;13.70;;;3.60;;
4698;SDS011;33708;49.466;11.176;2023-04-23T02:57:23;10.87;;;3.67;;
4698;SDS011;33708;49.466;11.176;2023-04-23T02:59:49;9.23;;;2.83;;
4698;SDS011;33708;49.466;11.176;2023-04-23T03:02:14;10.27;;;3.30;;
4698;SDS011;33708;49.466;11.176;2023-04-23T03:04:40;13.03;;;4.10;;
4698;SDS011;33708;49.466;11.176;2023-04-23T03:07:06;13.03;;;4.47;;
4698;SDS011;33708;49.466;11.176;2023-04-23T03:09:32;11.33;;;3.30;;
4698;SDS011;33708;49.466;11.176;2023-04-23T03:11:58;11.93;;;3.67;;
4698;SDS011;33708;49.466;11.176;2023-04-23T03:14:23;12.03;;;3.50;;
4698;SDS011;33708;49.466;11.176;2023-04-23T03:16:49;10.13;;;3.23;;
4698;SDS011;33708;49.466;11.176;2023-04-23T03:19:15;15.30;;;3.47;;
4698;SDS011;33708;49.466;11.176;2023-04-23T03:21:40;14.57;;;3.77;;
4698;SDS011;33708;49.466;11.176;2023-04-23T03:24:06;14.00;;;4.57;;
4698;SDS011;33708;49.466;11.176;2023-04-23T03:26:32;11.37;;;3.93;;
4698;SDS011;33708;49.466;11.176;2023-04-23T03:28:58;10.50;;;4.10;;
4698;SDS011;33708;49.466;11.176;2023-04-23T03:31:24;20.40;;;4.07;;
4698;SDS011;33708;49.466;11.176;2023-04-23T03:33:49;9.90;;;3.67;;
4698;SDS011;33708;49.466;11.176;2023-04-23T03:36:15;12.37;;;3.33;;
4698;SDS011;33708;49.466;11.176;2023-04-23T03:38:41;12.93;;;4.20;;
4698;SDS011;33708;49.466;11.176;2023-04-23T03:41:06;11.03;;;4.13;;
4698;SDS011;33708;49.466;11.176;2023-04-23T03:43:32;12.63;;;3.77;;
4698;SDS011;33708;49.466;11.176;2023-04-23T03:45:57;11.83;;;4.20;;
4698;SDS011;33708;49.466;11.176;2023-04-23T03:48:23;10.20;;;3.60;;
4698;SDS011;33708;49.466;11.176;2023-04-23T03:50:49;10.27;;;4.00;;
4698;SDS011;33708;49.466;11.176;2023-04-23T03:53:14;12.17;;;4.00;;
4698;SDS011;33708;49.466;11.176;2023-04-23T03:55:41;11.47;;;4.30;;
4698;SDS011;33708;49.466;11.176;2023-04-23T03:58:07;11.60;;;4.30;;
4698;SDS011;33708;49.466;11.176;2023-04-23T04:00:33;12.40;;;4.30;;
4698;SDS011;33708;49.466;11.176;2023-04-23T04:02:59;12.07;;;4.30;;
4698;SDS011;33708;49.466;11.176;2023-04-23T04:05:26;10.83;;;3.40;;
4698;SDS011;33708;49.466;11.176;2023-04-23T04:07:52;13.67;;;4.13;;
4698;SDS011;33708;49.466;11.176;2023-04-23T04:10:18;12.00;;;4.13;;
4698;SDS011;33708;49.466;11.176;2023-04-23T04:12:44;11.13;;;4.07;;
4698;SDS011;33708;49.466;11.176;2023-04-23T04:15:12;13.30;;;4.40;;
4698;SDS011;33708;49.466;11.176;2023-04-23T04:17:38;11.93;;;3.90;;
4698;SDS011;33708;49.466;11.176;2023-04-23T04:20:05;15.40;;;4.23;;
4698;SDS011;33708;49.466;11.176;2023-04-23T04:22:35;13.50;;;3.97;;
4698;SDS011;33708;49.466;11.176;2023-04-23T04:25:01;20.57;;;4.67;;
4698;SDS011;33708;49.466;11.176;2023-04-23T04:27:27;11.77;;;4.10;;
4698;SDS011;33708;49.466;11.176;2023-04-23T04:29:52;12.00;;;4.87;;
4698;SDS011;33708;49.466;11.176;2023-04-23T04:32:18;15.40;;;5.07;;
4698;SDS011;33708;49.466;11.176;2023-04-23T04:34:44;12.03;;;4.70;;
4698;SDS011;33708;49.466;11.176;2023-04-23T04:37:09;11.70;;;4.53;;
4698;SDS011;33708;49.466;11.176;2023-04-23T04:39:35;12.87;;;4.10;;
4698;SDS011;33708;49.466;11.176;2023-04-23T04:42:02;13.93;;;5.10;;
4698;SDS011;33708;49.466;11.176;2023-04-23T04:44:30;15.43;;;5.10;;
4698;SDS011;33708;49.466;11.176;2023-04-23T04:46:56;11.47;;;4.83;;
4698;SDS011;33708;49.466;11.176;2023-04-23T04:49:22;12.00;;;4.53;;
4698;SDS011;33708;49.466;11.176;2023-04-23T04:51:48;15.10;;;4.73;;
4698;SDS011;33708;49.466;11.176;2023-04-23T04:54:14;14.03;;;5.10;;
4698;SDS011;33708;49.466;11.176;2023-04-23T04:56:39;12.80;;;4.47;;
4698;SDS011;33708;49.466;11.176;2023-04-23T04:59:05;18.10;;;5.87;;
4698;SDS011;33708;49.466;11.176;2023-04-23T05:01:31;13.77;;;5.40;;
4698;SDS011;33708;49.466;11.176;2023-04-23T05:03:58;13.03;;;5.17;;
4698;SDS011;33708;49.466;11.176;2023-04-23T05:06:23;12.80;;;5.13;;
4698;SDS011;33708;49.466;11.176;2023-04-23T05:08:50;11.97;;;4.67;;
4698;SDS011;33708;49.466;11.176;2023-04-23T05:11:16;16.20;;;4.97;;
4698;SDS011;33708;49.466;11.176;2023-04-23T05:13:43;11.70;;;4.50;;
4698;SDS011;33708;49.466;11.176;2023-04-23T05:16:08;12.57;;;5.17;;
4698;SDS011;33708;49.466;11.176;2023-04-23T05:18:36;11.63;;;4.63;;
4698;SDS011;33708;49.466;11.176;2023-04-23T05:21:05;14.00;;;4.73;;
4698;SDS011;33708;49.466;11.176;2023-04-23T05:23:31;12.97;;;4.97;;
4698;SDS011;33708;49.466;11.176;2023-04-23T05:25:57;10.17;;;4.20;;
4698;SDS011;33708;49.466;11.176;2023-04-23T05:28:23;12.03;;;5.23;;
4698;SDS011;33708;49.466;11.176;2023-04-23T05:30:49;17.57;;;5.53;;
4698;SDS011;33708;49.466;11.176;2023-04-23T05:33:15;12.60;;;5.10;;
4698;SDS011;33708;49.466;11.176;2023-04-23T05:35:41;15.53;;;4.80;;
4698;SDS011;33708;49.466;11.176;2023-04-23T05:38:07;12.90;;;4.83;;
4698;SDS011;33708;49.466;11.176;2023-04-23T05:40:33;11.93;;;5.33;;
4698;SDS011;33708;49.466;11.176;2023-04-23T05:42:58;15.40;;;4.80;;
4698;SDS011;33708;49.466;11.176;2023-04-23T05:45:24;14.13;;;5.90;;
4698;SDS011;33708;49.466;11.176;2023-04-23T05:47:50;13.67;;;5.07;;
4698;SDS011;33708;49.466;11.176;2023-04-23T05:50:16;14.13;;;5.13;;
4698;SDS011;33708;49.466;11.176;2023-04-23T05:52:42;12.73;;;5.13;;
4698;SDS011;33708;49.466;11.176;2023-04-23T05:55:08;12.37;;;5.00;;
4698;SDS011;33708;49.466;11.176;2023-04-23T05:57:37;12.00;;;4.90;;
4698;SDS011;33708;49.466;11.176;2023-04-23T06:00:03;12.80;;;4.80;;
4698;SDS011;33708;49.466;11.176;2023-04-23T06:02:30;14.40;;;4.97;;
4698;SDS011;33708;49.466;11.176;2023-04-23T06:04:57;11.90;;;5.00;;
4698;SDS011;33708;49.466;11.176;2023-04-23T06:07:23;13.80;;;5.20;;
4698;SDS011;33708;49.466;11.176;2023-04-23T06:09:49;12.50;;;4.87;;
4698;SDS011;33708;49.466;11.176;2023-04-23T06:12:14;14.40;;;5.00;;
4698;SDS011;33708;49.466;11.176;2023-04-23T06:14:40;12.00;;;5.07;;
4698;SDS011;33708;49.466;11.176;2023-04-23T06:17:06;13.20;;;5.20;;
4698;SDS011;33708;49.466;11.176;2023-04-23T06:19:31;14.13;;;5.30;;
4698;SDS011;33708;49.466;11.176;2023-04-23T06:21:57;12.70;;;4.90;;
4698;SDS011;33708;49.466;11.176;2023-04-23T06:24:22;11.80;;;5.10;;
4698;SDS011;33708;49.466;11.176;2023-04-23T06:26:48;16.10;;;5.33;;
4698;SDS011;33708;49.466;11.176;2023-04-23T06:29:14;13.70;;;5.20;;
4698;SDS011;33708;49.466;11.176;2023-04-23T06:31:39;11.77;;;5.67;;
4698;SDS011;33708;49.466;11.176;2023-04-23T06:34:05;10.93;;;4.17;;
4698;SDS011;33708;49.466;11.176;2023-04-23T06:36:31;11.83;;;4.67;;
4698;SDS011;33708;49.466;11.176;2023-04-23T06:38:57;12.37;;;5.40;;
4698;SDS011;33708;49.466;11.176;2023-04-23T06:41:22;11.00;;;4.37;;
4698;SDS011;33708;49.466;11.176;2023-04-23T06:43:48;11.97;;;4.53;;
4698;SDS011;33708;49.466;11.176;2023-04-23T06:46:15;13.20;;;5.70;;
4698;SDS011;33708;49.466;11.176;2023-04-23T06:48:41;12.63;;;5.00;;
4698;SDS011;33708;49.466;11.176;2023-04-23T06:51:06;13.00;;;5.87;;
4698;SDS011;33708;49.466;11.176;2023-04-23T06:53:35;14.77;;;5.20;;
4698;SDS011;33708;49.466;11.176;2023-04-23T06:56:00;12.27;;;5.00;;
4698;SDS011;33708;49.466;11.176;2023-04-23T06:58:26;12.70;;;5.03;;
4698;SDS011;33708;49.466;11.176;2023-04-23T07:00:55;11.80;;;5.83;;
4698;SDS011;33708;49.466;11.176;2023-04-23T07:03:28;13.73;;;5.80;;
4698;SDS011;33708;49.466;11.176;2023-04-23T07:05:55;12.33;;;5.20;;
4698;SDS011;33708;49.466;11.176;2023-04-23T07:08:21;15.10;;;5.93;;
4698;SDS011;33708;49.466;11.176;2023-04-23T07:10:47;12.00;;;5.40;;
4698;SDS011;33708;49.466;11.176;2023-04-23T07:13:13;11.03;;;4.50;;
4698;SDS011;33708;49.466;11.176;2023-04-23T07:15:39;11.80;;;5.60;;
4698;SDS011;33708;49.466;11.176;2023-04-23T07:18:05;12.70;;;5.03;;
4698;SDS011;33708;49.466;11.176;2023-04-23T07:20:32;11.83;;;5.67;;
4698;SDS011;33708;49.466;11.176;2023-04-23T07:22:57;14.07;;;5.07;;
4698;SDS011;33708;49.466;11.176;2023-04-23T07:25:24;12.23;;;4.60;;
4698;SDS011;33708;49.466;11.176;2023-04-23T07:27:50;11.33;;;4.63;;
4698;SDS011;33708;49.466;11.176;2023-04-23T07:30:17;16.73;;;5.07;;
4698;SDS011;33708;49.466;11.176;2023-04-23T07:32:43;14.50;;;4.47;;
4698;SDS011;33708;49.466;11.176;2023-04-23T07:35:09;12.50;;;4.90;;
4698;SDS011;33708;49.466;11.176;2023-04-23T07:37:35;12.10;;;4.93;;
4698;SDS011;33708;49.466;11.176;2023-04-23T07:40:01;11.50;;;5.10;;
4698;SDS011;33708;49.466;11.176;2023-04-23T07:42:29;16.47;;;5.50;;
4698;SDS011;33708;49.466;11.176;2023-04-23T07:44:55;13.20;;;5.30;;
4698;SDS011;33708;49.466;11.176;2023-04-23T07:47:20;12.67;;;5.83;;
4698;SDS011;33708;49.466;11.176;2023-04-23T07:49:46;13.73;;;4.97;;
4698;SDS011;33708;49.466;11.176;2023-04-23T07:52:12;12.30;;;4.57;;
4698;SDS011;33708;49.466;11.176;2023-04-23T07:54:38;14.10;;;5.27;;
4698;SDS011;33708;49.466;11.176;2023-04-23T07:57:03;11.53;;;4.70;;
4698;SDS011;33708;49.466;11.176;2023-04-23T07:59:29;13.03;;;4.63;;
4698;SDS011;33708;49.466;11.176;2023-04-23T08:01:55;13.17;;;4.70;;
4698;SDS011;33708;49.466;11.176;2023-04-23T08:04:20;16.83;;;4.63;;
4698;SDS011;33708;49.466;11.176;2023-04-23T08:06:46;14.70;;;4.80;;
4698;SDS011;33708;49.466;11.176;2023-04-23T08:09:12;12.70;;;4.73;;
4698;SDS011;33708;49.466;11.176;2023-04-23T08:11:37;11.10;;;4.33;;
4698;SDS011;33708;49.466;11.176;2023-04-23T08:14:03;11.90;;;5.00;;
4698;SDS011;33708;49.466;11.176;2023-04-23T08:16:29;11.60;;;4.93;;
4698;SDS011;33708;49.466;11.176;2023-04-23T08:18:54;14.00;;;4.37;;
4698;SDS011;33708;49.466;11.176;2023-04-23T08:21:20;11.50;;;4.60;;
4698;SDS011;33708;49.466;11.176;2023-04-23T08:23:46;14.83;;;4.20;;
4698;SDS011;33708;49.466;11.176;2023-04-23T08:26:12;13.60;;;4.13;;
4698;SDS011;33708;49.466;11.176;2023-04-23T08:28:37;12.87;;;4.60;;
4698;SDS011;33708;49.466;11.176;2023-04-23T08:31:03;12.20;;;4.50;;
4698;SDS011;33708;49.466;11.176;2023-04-23T08:33:29;12.40;;;4.40;;
4698;SDS011;33708;49.466;11.176;2023-04-23T08:35:54;11.40;;;4.00;;
4698;SDS011;33708;49.466;11.176;2023-04-23T08:38:20;11.80;;;4.03;;
4698;SDS011;33708;49.466;11.176;2023-04-23T08:40:46;10.97;;;4.13;;
4698;SDS011;33708;49.466;11.176;2023-04-23T08:43:19;13.33;;;4.27;;
4698;SDS011;33708;49.466;11.176;2023-04-23T08:45:45;11.30;;;4.33;;
4698;SDS011;33708;49.466;11.176;2023-04-23T08:48:12;10.13;;;3.50;;
4698;SDS011;33708;49.466;11.176;2023-04-23T08:50:41;11.60;;;3.33;;
4698;SDS011;33708;49.466;11.176;2023-04-23T08:53:07;22.23;;;3.60;;
4698;SDS011;33708;49.466;11.176;2023-04-23T08:55:34;10.33;;;2.87;;
4698;SDS011;33708;49.466;11.176;2023-04-23T08:58:00;11.07;;;3.10;;
4698;SDS011;33708;49.466;11.176;2023-04-23T09:00:27;10.60;;;2.70;;
4698;SDS011;33708;49.466;11.176;2023-04-23T09:02:54;23.10;;;2.83;;
4698;SDS011;33708;49.466;11.176;2023-04-23T09:05:20;12.10;;;2.47;;
4698;SDS011;33708;49.466;11.176;2023-04-23T09:07:46;10.03;;;2.43;;
4698;SDS011;33708;49.466;11.176;2023-04-23T09:10:12;8.80;;;2.10;;
4698;SDS011;33708;49.466;11.176;2023-04-23T09:12:39;11.13;;;2.40;;
4698;SDS011;33708;49.466;11.176;2023-04-23T09:15:06;13.73;;;2.70;;
4698;SDS011;33708;49.466;11.176;2023-04-23T09:17:43;9.17;;;2.43;;
4698;SDS011;33708;49.466;11.176;2023-04-23T09:20:11;8.97;;;2.30;;
4698;SDS011;33708;49.466;11.176;2023-04-23T09:25:08;8.97;;;2.37;;
4698;SDS011;33708;49.466;11.176;2023-04-23T09:27:35;9.40;;;2.30;;
4698;SDS011;33708;49.466;11.176;2023-04-23T09:30:01;9.60;;;2.57;;
4698;SDS011;33708;49.466;11.176;2023-04-23T09:32:32;9.83;;;2.43;;
4698;SDS011;33708;49.466;11.176;2023-04-23T09:35:00;8.40;;;2.03;;
4698;SDS011;33708;49.466;11.176;2023-04-23T09:37:28;8.70;;;2.20;;
4698;SDS011;33708;49.466;11.176;2023-04-23T09:39:57;12.90;;;2.40;;
4698;SDS011;33708;49.466;11.176;2023-04-23T09:42:28;13.80;;;1.93;;
4698;SDS011;33708;49.466;11.176;2023-04-23T09:45:11;9.20;;;1.73;;
4698;SDS011;33708;49.466;11.176;2023-04-23T09:47:37;7.83;;;1.63;;
4698;SDS011;33708;49.466;11.176;2023-04-23T09:50:04;7.93;;;1.57;;
4698;SDS011;33708;49.466;11.176;2023-04-23T09:52:31;9.60;;;1.47;;
4698;SDS011;33708;49.466;11.176;2023-04-23T09:55:00;18.33;;;2.20;;
4698;SDS011;33708;49.466;11.176;2023-04-23T09:57:26;9.03;;;2.30;;
4698;SDS011;33708;49.466;11.176;2023-04-23T09:59:55;10.50;;;2.50;;
4698;SDS011;33708;49.466;11.176;2023-04-23T10:02:25;10.33;;;2.57;;
4698;SDS011;33708;49.466;11.176;2023-04-23T10:04:51;9.93;;;2.27;;
4698;SDS011;33708;49.466;11.176;2023-04-23T10:07:17;10.60;;;2.60;;
4698;SDS011;33708;49.466;11.176;2023-04-23T10:09:44;8.90;;;2.07;;
4698;SDS011;33708;49.466;11.176;2023-04-23T10:12:09;11.40;;;2.73;;
4698;SDS011;33708;49.466;11.176;2023-04-23T10:14:36;12.30;;;2.30;;
4698;SDS011;33708;49.466;11.176;2023-04-23T10:17:03;8.33;;;2.00;;
4698;SDS011;33708;49.466;11.176;2023-04-23T10:19:29;11.00;;;2.50;;
4698;SDS011;33708;49.466;11.176;2023-04-23T10:21:59;9.00;;;2.10;;
4698;SDS011;33708;49.466;11.176;2023-04-23T10:24:31;9.63;;;2.30;;
4698;SDS011;33708;49.466;11.176;2023-04-23T10:27:04;7.60;;;1.80;;
4698;SDS011;33708;49.466;11.176;2023-04-23T10:29:33;8.07;;;1.87;;
4698;SDS011;33708;49.466;11.176;2023-04-23T10:32:03;8.00;;;1.77;;
4698;SDS011;33708;49.466;11.176;2023-04-23T10:34:30;8.63;;;1.90;;
4698;SDS011;33708;49.466;11.176;2023-04-23T10:36:58;8.00;;;1.93;;
4698;SDS011;33708;49.466;11.176;2023-04-23T10:39:26;8.23;;;1.90;;
4698;SDS011;33708;49.466;11.176;2023-04-23T10:41:54;12.00;;;1.90;;
4698;SDS011;33708;49.466;11.176;2023-04-23T10:44:20;8.70;;;1.70;;
4698;SDS011;33708;49.466;11.176;2023-04-23T10:46:53;8.53;;;1.80;;
4698;SDS011;33708;49.466;11.176;2023-04-23T10:49:22;9.37;;;1.90;;
4698;SDS011;33708;49.466;11.176;2023-04-23T10:51:57;10.23;;;2.00;;
4698;SDS011;33708;49.466;11.176;2023-04-23T10:54:27;8.03;;;1.77;;
4698;SDS011;33708;49.466;11.176;2023-04-23T10:57:02;8.43;;;1.53;;
4698;SDS011;33708;49.466;11.176;2023-04-23T10:59:31;8.20;;;1.70;;
4698;SDS011;33708;49.466;11.176;2023-04-23T11:02:07;7.87;;;1.70;;
4698;SDS011;33708;49.466;11.176;2023-04-23T11:04:46;8.93;;;1.90;;
4698;SDS011;33708;49.466;11.176;2023-04-23T11:07:28;8.90;;;1.73;;
4698;SDS011;33708;49.466;11.176;2023-04-23T11:09:56;9.10;;;1.80;;
4698;SDS011;33708;49.466;11.176;2023-04-23T11:14:53;11.40;;;1.90;;
4698;SDS011;33708;49.466;11.176;2023-04-23T11:17:23;8.40;;;1.60;;
4698;SDS011;33708;49.466;11.176;2023-04-23T11:20:09;9.90;;;1.60;;
4698;SDS011;33708;49.466;11.176;2023-04-23T11:22:50;8.93;;;1.63;;
4698;SDS011;33708;49.466;11.176;2023-04-23T11:25:23;11.87;;;1.63;;
4698;SDS011;33708;49.466;11.176;2023-04-23T11:27:55;9.20;;;1.60;;
4698;SDS011;33708;49.466;11.176;2023-04-23T11:30:23;8.77;;;1.70;;
4698;SDS011;33708;49.466;11.176;2023-04-23T11:32:51;7.67;;;1.37;;
4698;SDS011;33708;49.466;11.176;2023-04-23T11:35:19;8.33;;;1.73;;
4698;SDS011;33708;49.466;11.176;2023-04-23T11:37:46;8.93;;;1.70;;
4698;SDS011;33708;49.466;11.176;2023-04-23T11:40:13;9.00;;;1.57;;
4698;SDS011;33708;49.466;11.176;2023-04-23T11:42:46;9.30;;;1.30;;
4698;SDS011;33708;49.466;11.176;2023-04-23T11:45:21;8.53;;;1.27;;
4698;SDS011;33708;49.466;11.176;2023-04-23T11:47:49;7.30;;;1.10;;
4698;SDS011;33708;49.466;11.176;2023-04-23T11:50:20;8.53;;;1.27;;
4698;SDS011;33708;49.466;11.176;2023-04-23T11:52:47;9.30;;;1.43;;
4698;SDS011;33708;49.466;11.176;2023-04-23T11:55:13;9.10;;;1.60;;
4698;SDS011;33708;49.466;11.176;2023-04-23T11:57:44;8.57;;;1.57;;
4698;SDS011;33708;49.466;11.176;2023-04-23T12:02:57;8.00;;;1.37;;
4698;SDS011;33708;49.466;11.176;2023-04-23T12:05:27;8.33;;;1.40;;
4698;SDS011;33708;49.466;11.176;2023-04-23T12:08:04;9.47;;;1.13;;
4698;SDS011;33708;49.466;11.176;2023-04-23T12:10:51;8.93;;;1.30;;
4698;SDS011;33708;49.466;11.176;2023-04-23T12:13:22;9.53;;;1.30;;
4698;SDS011;33708;49.466;11.176;2023-04-23T12:15:49;8.70;;;1.77;;
4698;SDS011;33708;49.466;11.176;2023-04-23T12:18:16;7.50;;;1.30;;
4698;SDS011;33708;49.466;11.176;2023-04-23T12:20:43;8.40;;;1.10;;
4698;SDS011;33708;49.466;11.176;2023-04-23T12:23:10;9.30;;;1.03;;
4698;SDS011;33708;49.466;11.176;2023-04-23T12:25:35;8.13;;;1.20;;
4698;SDS011;33708;49.466;11.176;2023-04-23T12:28:01;7.73;;;1.20;;
4698;SDS011;33708;49.466;11.176;2023-04-23T12:30:31;8.57;;;1.13;;
4698;SDS011;33708;49.466;11.176;2023-04-23T12:33:01;9.63;;;1.20;;
4698;SDS011;33708;49.466;11.176;2023-04-23T12:35:38;9.40;;;1.40;;
4698;SDS011;33708;49.466;11.176;2023-04-23T12:38:04;10.30;;;1.40;;
4698;SDS011;33708;49.466;11.176;2023-04-23T12:40:30;8.67;;;1.17;;
4698;SDS011;33708;49.466;11.176;2023-04-23T12:42:56;8.10;;;1.67;;
4698;SDS011;33708;49.466;11.176;2023-04-23T12:45:23;7.10;;;1.13;;
4698;SDS011;33708;49.466;11.176;2023-04-23T12:47:48;7.70;;;1.23;;
4698;SDS011;33708;49.466;11.176;2023-04-23T12:50:14;9.70;;;1.20;;
4698;SDS011;33708;49.466;11.176;2023-04-23T12:52:41;7.77;;;1.10;;
4698;SDS011;33708;49.466;11.176;2023-04-23T12:55:06;7.30;;;1.00;;
4698;SDS011;33708;49.466;11.176;2023-04-23T12:57:32;7.10;;;1.07;;
4698;SDS011;33708;49.466;11.176;2023-04-23T12:59:58;7.30;;;1.03;;
4698;SDS011;33708;49.466;11.176;2023-04-23T13:02:24;7.60;;;1.10;;
4698;SDS011;33708;49.466;11.176;2023-04-23T13:04:50;8.30;;;1.30;;
4698;SDS011;33708;49.466;11.176;2023-04-23T13:07:18;8.73;;;1.20;;
4698;SDS011;33708;49.466;11.176;2023-04-23T13:09:44;7.27;;;0.90;;
4698;SDS011;33708;49.466;11.176;2023-04-23T13:12:09;8.37;;;0.90;;
4698;SDS011;33708;49.466;11.176;2023-04-23T13:14:35;8.17;;;1.33;;
4698;SDS011;33708;49.466;11.176;2023-04-23T13:17:01;6.90;;;0.90;;
4698;SDS011;33708;49.466;11.176;2023-04-23T13:19:27;7.80;;;0.90;;
4698;SDS011;33708;49.466;11.176;2023-04-23T13:21:52;7.30;;;1.20;;
4698;SDS011;33708;49.466;11.176;2023-04-23T13:24:18;7.10;;;0.90;;
4698;SDS011;33708;49.466;11.176;2023-04-23T13:26:43;8.83;;;1.10;;
4698;SDS011;33708;49.466;11.176;2023-04-23T13:29:10;7.00;;;0.93;;
4698;SDS011;33708;49.466;11.176;2023-04-23T13:31:35;8.30;;;1.40;;
4698;SDS011;33708;49.466;11.176;2023-04-23T13:34:01;8.03;;;1.10;;
4698;SDS011;33708;49.466;11.176;2023-04-23T13:36:27;9.10;;;1.17;;
4698;SDS011;33708;49.466;11.176;2023-04-23T13:38:52;7.97;;;1.13;;
4698;SDS011;33708;49.466;11.176;2023-04-23T13:41:18;8.10;;;1.27;;
4698;SDS011;33708;49.466;11.176;2023-04-23T13:43:44;10.53;;;1.67;;
4698;SDS011;33708;49.466;11.176;2023-04-23T13:46:09;10.33;;;1.20;;
4698;SDS011;33708;49.466;11.176;2023-04-23T13:48:35;8.30;;;1.40;;
4698;SDS011;33708;49.466;11.176;2023-04-23T13:51:01;8.60;;;1.03;;
4698;SDS011;33708;49.466;11.176;2023-04-23T13:53:27;8.13;;;1.10;;
4698;SDS011;33708;49.466;11.176;2023-04-23T13:55:53;10.80;;;1.10;;
4698;SDS011;33708;49.466;11.176;2023-04-23T13:58:20;7.73;;;1.10;;
4698;SDS011;33708;49.466;11.176;2023-04-23T14:00:46;8.47;;;1.30;;
4698;SDS011;33708;49.466;11.176;2023-04-23T14:03:12;6.90;;;0.90;;
4698;SDS011;33708;49.466;11.176;2023-04-23T14:05:37;7.50;;;1.20;;
4698;SDS011;33708;49.466;11.176;2023-04-23T14:08:03;8.07;;;1.00;;
4698;SDS011;33708;49.466;11.176;2023-04-23T14:10:29;10.50;;;1.80;;
4698;SDS011;33708;49.466;11.176;2023-04-23T14:12:55;7.67;;;1.30;;
4698;SDS011;33708;49.466;11.176;2023-04-23T14:15:21;8.57;;;1.00;;
4698;SDS011;33708;49.466;11.176;2023-04-23T14:17:47;7.20;;;1.20;;
4698;SDS011;33708;49.466;11.176;2023-04-23T14:20:13;7.77;;;1.20;;
4698;SDS011;33708;49.466;11.176;2023-04-23T14:22:39;7.53;;;1.17;;
4698;SDS011;33708;49.466;11.176;2023-04-23T14:25:09;9.37;;;1.23;;
4698;SDS011;33708;49.466;11.176;2023-04-23T14:27:40;7.50;;;1.10;;
4698;SDS011;33708;49.466;11.176;2023-04-23T14:30:17;10.13;;;1.20;;
4698;SDS011;33708;49.466;11.176;2023-04-23T14:32:44;7.90;;;1.40;;
4698;SDS011;33708;49.466;11.176;2023-04-23T14:35:11;8.20;;;1.40;;
4698;SDS011;33708;49.466;11.176;2023-04-23T14:37:41;7.60;;;1.00;;
4698;SDS011;33708;49.466;11.176;2023-04-23T14:40:12;8.17;;;1.20;;
4698;SDS011;33708;49.466;11.176;2023-04-23T14:42:43;7.40;;;1.20;;
4698;SDS011;33708;49.466;11.176;2023-04-23T14:45:10;7.53;;;1.00;;